Terminal Aerodrome Forecast
Issued by NWS

Home | Current Version | Previous Version | Text Only | Print | Product List | Glossary Off
Versions: 1 2 3 4 5 6 7 8 9 10 11 12 13 14 15 16 17 18 19 20 21 22 23 24

000
FTUS41 KCLE 042300
TAFFDY
TAF
KFDY 042326Z 0500/0524 25007KT P6SM SCT050 OVC100
     FM050700 06006KT P6SM VCSH SCT025 OVC045
     FM051200 06008KT 5SM -SHRA OVC020
     FM051900 02008KT 5SM -SHRA OVC020=

USA.gov is the U.S. government's official web portal to all federal, state and local government web resources and services.